createdAt,value
2023-04-27T00:00:01.378Z,12.20
2023-04-27T00:01:12.768Z,12.10
2023-04-27T00:02:16.589Z,12.50
2023-04-27T00:03:19.875Z,12.80
2023-04-27T00:04:23.229Z,12.60
2023-04-27T00:05:26.579Z,13.60
2023-04-27T00:06:29.705Z,12.40
2023-04-27T00:07:32.829Z,13.00
2023-04-27T00:08:35.877Z,13.40
2023-04-27T00:09:39.098Z,13.40
2023-04-27T00:10:42.113Z,15.70
2023-04-27T00:11:45.053Z,14.80
2023-04-27T00:12:47.964Z,14.50
2023-04-27T00:13:51.036Z,14.90
2023-04-27T00:14:53.953Z,16.30
2023-04-27T00:15:57.185Z,18.10
2023-04-27T00:17:00.130Z,17.70
2023-04-27T00:18:03.071Z,18.70
2023-04-27T00:19:06.096Z,18.50
2023-04-27T00:20:11.886Z,16.80
2023-04-27T00:21:14.864Z,18.20
2023-04-27T00:22:18.483Z,17.20
2023-04-27T00:23:21.745Z,14.80
2023-04-27T00:24:24.708Z,14.50
2023-04-27T00:25:27.914Z,15.60
2023-04-27T00:26:30.994Z,13.20
2023-04-27T00:27:35.341Z,14.50
2023-04-27T00:28:38.202Z,13.10
2023-04-27T00:29:44.097Z,12.70
2023-04-27T00:30:47.279Z,13.00
2023-04-27T00:31:50.148Z,12.70
2023-04-27T00:32:53.091Z,12.40
2023-04-27T00:33:56.075Z,13.00
2023-04-27T00:34:58.928Z,11.90
2023-04-27T00:36:02.498Z,12.00
2023-04-27T00:37:05.883Z,13.30
2023-04-27T00:38:09.140Z,12.60
2023-04-27T00:39:12.451Z,11.40
2023-04-27T00:40:15.778Z,12.60
2023-04-27T00:41:18.674Z,11.90
2023-04-27T00:42:21.690Z,11.60
2023-04-27T00:43:27.309Z,11.70
2023-04-27T00:44:30.900Z,12.40
2023-04-27T00:45:41.552Z,11.10
2023-04-27T00:46:44.592Z,11.10
2023-04-27T00:47:49.900Z,11.80
2023-04-27T00:48:54.429Z,12.50
2023-04-27T00:49:57.534Z,11.20
2023-04-27T00:51:01.479Z,12.40
2023-04-27T00:52:04.501Z,11.60
2023-04-27T00:53:07.960Z,11.30
2023-04-27T00:54:11.300Z,11.50
2023-04-27T00:55:14.210Z,11.50
2023-04-27T00:56:17.316Z,10.90
2023-04-27T00:57:20.600Z,11.50
2023-04-27T00:58:23.592Z,11.40
2023-04-27T00:59:26.790Z,11.70
2023-04-27T01:00:29.837Z,11.00
2023-04-27T01:01:33.376Z,11.20
2023-04-27T01:02:37.114Z,11.90
2023-04-27T01:03:40.399Z,11.10
2023-04-27T01:04:43.651Z,11.10
2023-04-27T01:05:46.499Z,11.70
2023-04-27T01:06:50.835Z,10.90
2023-04-27T01:07:53.739Z,12.30
2023-04-27T01:08:56.662Z,11.60
2023-04-27T01:09:59.545Z,11.70
2023-04-27T01:11:02.386Z,11.60
2023-04-27T01:12:05.592Z,11.90
2023-04-27T01:13:08.465Z,10.50
2023-04-27T01:14:11.539Z,11.70
2023-04-27T01:15:14.407Z,10.70
2023-04-27T01:16:20.374Z,11.20
2023-04-27T01:17:23.276Z,11.60
2023-04-27T01:18:26.500Z,11.20
2023-04-27T01:19:29.439Z,11.50
2023-04-27T01:20:32.554Z,12.20
2023-04-27T01:21:35.782Z,11.60
2023-04-27T01:22:39.087Z,11.00
2023-04-27T01:23:42.118Z,11.80
2023-04-27T01:24:47.177Z,11.70
2023-04-27T01:25:50.022Z,11.30
2023-04-27T01:26:54.071Z,13.60
2023-04-27T01:27:56.963Z,12.50
2023-04-27T01:29:00.066Z,13.00
2023-04-27T01:30:03.561Z,13.20
2023-04-27T01:31:07.011Z,12.50
2023-04-27T01:32:09.916Z,13.20
2023-04-27T01:33:13.203Z,12.70
2023-04-27T01:34:16.205Z,12.00
2023-04-27T01:35:23.450Z,12.60
2023-04-27T01:36:27.829Z,12.00
2023-04-27T01:37:32.135Z,11.70
2023-04-27T01:38:35.829Z,12.10
2023-04-27T01:39:38.935Z,11.80
2023-04-27T01:40:44.212Z,11.90
2023-04-27T01:41:47.104Z,11.90
2023-04-27T01:42:50.011Z,11.70
2023-04-27T01:43:52.914Z,12.00
2023-04-27T01:44:55.781Z,11.30
2023-04-27T01:46:08.462Z,10.90
2023-04-27T01:47:11.892Z,11.60
2023-04-27T01:48:16.606Z,11.20
2023-04-27T01:49:20.498Z,11.20
2023-04-27T01:50:25.206Z,10.70
2023-04-27T01:51:28.494Z,10.90
2023-04-27T01:52:31.393Z,10.60
2023-04-27T01:53:34.941Z,11.10
2023-04-27T01:54:37.765Z,10.70
2023-04-27T01:55:42.538Z,10.80
2023-04-27T01:56:45.431Z,11.70
2023-04-27T01:57:48.312Z,11.90
2023-04-27T01:58:53.501Z,11.60
2023-04-27T01:59:56.450Z,10.70
2023-04-27T02:00:59.399Z,10.50
2023-04-27T02:02:02.356Z,11.00
2023-04-27T02:03:06.070Z,10.90
2023-04-27T02:04:09.094Z,10.70
2023-04-27T02:05:12.079Z,11.60
2023-04-27T02:06:14.907Z,11.10
2023-04-27T02:07:17.960Z,11.20
2023-04-27T02:08:21.119Z,11.60
2023-04-27T02:09:24.032Z,11.20
2023-04-27T02:10:26.946Z,10.60
2023-04-27T02:11:32.849Z,10.90
2023-04-27T02:12:35.729Z,11.20
2023-04-27T02:13:39.505Z,11.00
2023-04-27T02:14:42.856Z,11.30
2023-04-27T02:15:45.942Z,11.00
2023-04-27T02:16:48.880Z,11.00
2023-04-27T02:17:52.413Z,10.60
2023-04-27T02:18:55.452Z,10.60
2023-04-27T02:19:58.400Z,11.40
2023-04-27T02:21:07.822Z,10.90
2023-04-27T02:22:12.623Z,11.10
2023-04-27T02:23:15.530Z,11.40
2023-04-27T02:24:18.793Z,10.80
2023-04-27T02:25:21.638Z,11.00
2023-04-27T02:26:29.514Z,11.60
2023-04-27T02:27:33.042Z,10.50
2023-04-27T02:28:36.404Z,12.10
2023-04-27T02:29:39.690Z,11.90
2023-04-27T02:30:43.203Z,11.20
2023-04-27T02:31:46.584Z,11.50
2023-04-27T02:32:49.774Z,11.00
2023-04-27T02:33:53.023Z,11.00
2023-04-27T02:34:56.983Z,10.60
2023-04-27T02:36:00.950Z,11.40
2023-04-27T02:37:04.752Z,11.50
2023-04-27T02:38:07.680Z,11.90
2023-04-27T02:39:13.398Z,11.90
2023-04-27T02:40:16.465Z,12.10
2023-04-27T02:41:19.336Z,11.80
2023-04-27T02:42:22.340Z,11.10
2023-04-27T02:43:25.268Z,11.20
2023-04-27T02:44:28.138Z,11.70
2023-04-27T02:45:31.028Z,12.00
2023-04-27T02:46:34.428Z,11.50
2023-04-27T02:47:37.653Z,11.00
2023-04-27T02:48:40.676Z,12.40
2023-04-27T02:49:43.994Z,12.00
2023-04-27T02:50:46.869Z,11.80
2023-04-27T02:51:50.457Z,11.30
2023-04-27T02:52:53.481Z,11.70
2023-04-27T02:53:56.473Z,12.30
2023-04-27T02:54:59.346Z,12.00
2023-04-27T02:56:02.192Z,11.50
2023-04-27T02:57:05.614Z,12.20
2023-04-27T02:58:08.623Z,11.50
2023-04-27T02:59:11.924Z,11.40
2023-04-27T03:00:15.486Z,11.00
2023-04-27T03:01:18.461Z,11.30
2023-04-27T03:02:21.584Z,12.20
2023-04-27T03:03:25.211Z,12.30
2023-04-27T03:04:28.529Z,12.30
2023-04-27T03:05:32.010Z,12.20
2023-04-27T03:06:34.987Z,11.40
2023-04-27T03:07:37.920Z,12.50
2023-04-27T03:08:41.297Z,12.30
2023-04-27T03:09:44.170Z,12.30
2023-04-27T03:10:47.085Z,12.00
2023-04-27T03:11:50.708Z,12.20
2023-04-27T03:12:53.589Z,11.40
2023-04-27T03:13:57.941Z,12.70
2023-04-27T03:15:01.218Z,12.00
2023-04-27T03:16:04.257Z,11.30
2023-04-27T03:17:07.195Z,11.30
2023-04-27T03:18:10.264Z,11.10
2023-04-27T03:19:13.461Z,11.40
2023-04-27T03:20:16.602Z,11.30
2023-04-27T03:21:19.536Z,11.20
2023-04-27T03:22:25.194Z,10.80
2023-04-27T03:23:28.095Z,11.90
2023-04-27T03:24:31.107Z,11.70
2023-04-27T03:25:34.098Z,12.20
2023-04-27T03:26:36.931Z,12.00
2023-04-27T03:27:40.506Z,12.00
2023-04-27T03:28:43.394Z,11.50
2023-04-27T03:29:46.350Z,11.20
2023-04-27T03:30:49.225Z,11.20
2023-04-27T03:31:52.162Z,12.50
2023-04-27T03:32:55.231Z,11.40
2023-04-27T03:33:58.346Z,11.60
2023-04-27T03:35:01.188Z,12.20
2023-04-27T03:36:06.650Z,12.20
2023-04-27T03:37:09.702Z,11.40
2023-04-27T03:38:13.127Z,12.20
2023-04-27T03:39:16.526Z,12.40
2023-04-27T03:40:19.784Z,12.70
2023-04-27T03:41:23.012Z,12.90
2023-04-27T03:42:25.932Z,12.10
2023-04-27T03:43:29.182Z,11.80
2023-04-27T03:44:33.614Z,11.90
2023-04-27T03:45:36.571Z,10.80
2023-04-27T03:46:39.562Z,11.90
2023-04-27T03:47:42.554Z,12.00
2023-04-27T03:48:47.276Z,11.20
2023-04-27T03:49:50.406Z,12.70
2023-04-27T03:50:53.305Z,11.80
2023-04-27T03:51:56.963Z,11.80
2023-04-27T03:52:59.884Z,13.00
2023-04-27T03:54:02.916Z,11.30
2023-04-27T03:55:07.143Z,11.10
2023-04-27T03:56:10.624Z,11.60
2023-04-27T03:57:13.551Z,12.20
2023-04-27T03:58:17.600Z,11.60
2023-04-27T03:59:39.309Z,11.90
2023-04-27T04:00:42.326Z,11.80
2023-04-27T04:01:45.296Z,11.20
2023-04-27T04:02:48.399Z,11.80
2023-04-27T04:03:51.770Z,12.60
2023-04-27T04:04:55.032Z,12.50
2023-04-27T04:05:57.974Z,12.00
2023-04-27T04:07:00.949Z,12.60
2023-04-27T04:08:03.984Z,12.30
2023-04-27T04:09:06.999Z,11.30
2023-04-27T04:10:11.036Z,13.40
2023-04-27T04:11:13.971Z,11.40
2023-04-27T04:12:17.022Z,12.30
2023-04-27T04:13:19.931Z,12.10
2023-04-27T04:14:23.024Z,12.10
2023-04-27T04:15:26.303Z,12.10
2023-04-27T04:16:29.464Z,12.70
2023-04-27T04:17:34.175Z,11.60
2023-04-27T04:18:38.386Z,12.40
2023-04-27T04:19:41.730Z,11.30
2023-04-27T04:20:44.679Z,12.50
2023-04-27T04:21:47.633Z,11.10
2023-04-27T04:22:50.727Z,12.70
2023-04-27T04:23:53.597Z,11.40
2023-04-27T04:24:56.890Z,11.70
2023-04-27T04:25:59.985Z,11.90
2023-04-27T04:27:06.233Z,11.50
2023-04-27T04:28:09.151Z,11.40
2023-04-27T04:29:12.361Z,11.30
2023-04-27T04:30:16.007Z,12.30
2023-04-27T04:31:19.126Z,11.10
2023-04-27T04:32:23.107Z,11.30
2023-04-27T04:33:26.470Z,10.80
2023-04-27T04:34:29.383Z,11.30
2023-04-27T04:35:33.208Z,11.80
2023-04-27T04:36:36.275Z,11.90
2023-04-27T04:37:39.341Z,11.20
2023-04-27T04:38:42.237Z,11.90
2023-04-27T04:39:45.600Z,11.60
2023-04-27T04:40:48.606Z,11.70
2023-04-27T04:41:51.669Z,12.00
2023-04-27T04:42:54.918Z,12.00
2023-04-27T04:43:58.000Z,10.80
2023-04-27T04:45:01.063Z,11.40
2023-04-27T04:46:03.988Z,11.10
2023-04-27T04:47:06.860Z,11.80
2023-04-27T04:48:10.418Z,11.30
2023-04-27T04:49:13.528Z,11.60
2023-04-27T04:50:16.659Z,12.60
2023-04-27T04:51:19.509Z,11.20
2023-04-27T04:52:22.837Z,11.70
2023-04-27T04:53:26.287Z,11.90
2023-04-27T04:54:31.838Z,10.90
2023-04-27T04:55:34.751Z,10.90
2023-04-27T04:56:37.949Z,10.80
2023-04-27T04:57:41.057Z,11.00
2023-04-27T04:58:44.013Z,10.70
2023-04-27T04:59:46.872Z,10.10
2023-04-27T05:00:49.825Z,11.30
2023-04-27T05:01:56.025Z,10.50
2023-04-27T05:02:59.163Z,10.80
2023-04-27T05:04:02.431Z,11.30
2023-04-27T05:05:05.640Z,11.00
2023-04-27T05:06:08.613Z,11.70
2023-04-27T05:07:14.698Z,10.90
2023-04-27T05:08:17.962Z,11.00
2023-04-27T05:09:20.796Z,11.00
2023-04-27T05:10:23.692Z,10.20
2023-04-27T05:11:26.968Z,10.30
2023-04-27T05:12:29.860Z,11.20
2023-04-27T05:13:32.729Z,11.50
2023-04-27T05:14:35.886Z,11.20
2023-04-27T05:15:38.784Z,10.90
2023-04-27T05:16:41.833Z,10.70
2023-04-27T05:17:44.998Z,10.50
2023-04-27T05:18:47.851Z,10.10
2023-04-27T05:19:50.917Z,10.40
2023-04-27T05:20:53.784Z,10.70
2023-04-27T05:21:57.609Z,10.80
2023-04-27T05:23:00.462Z,10.40
2023-04-27T05:24:03.508Z,9.80
2023-04-27T05:25:06.719Z,11.00
2023-04-27T05:26:17.435Z,10.20
2023-04-27T05:27:20.718Z,9.60
2023-04-27T05:28:23.607Z,9.80
2023-04-27T05:29:27.723Z,10.00
2023-04-27T05:30:31.011Z,10.20
2023-04-27T05:31:34.455Z,9.60
2023-04-27T05:32:37.843Z,10.30
2023-04-27T05:33:40.759Z,10.50
2023-04-27T05:34:46.717Z,10.70
2023-04-27T05:35:51.075Z,10.30
2023-04-27T05:36:53.968Z,9.90
2023-04-27T05:37:57.789Z,10.00
2023-04-27T05:39:00.656Z,10.00
2023-04-27T05:40:06.091Z,11.50
2023-04-27T05:41:09.362Z,9.80
2023-04-27T05:42:12.225Z,10.80
2023-04-27T05:43:15.299Z,10.60
2023-04-27T05:44:18.220Z,10.70
2023-04-27T05:45:21.768Z,10.20
2023-04-27T05:46:24.774Z,9.90
2023-04-27T05:47:27.741Z,9.10
2023-04-27T05:48:31.123Z,9.70
2023-04-27T05:49:33.980Z,9.60
2023-04-27T05:50:36.925Z,10.00
2023-04-27T05:51:39.789Z,9.90
2023-04-27T05:52:42.662Z,10.10
2023-04-27T05:53:45.561Z,10.90
2023-04-27T05:54:49.898Z,9.60
2023-04-27T05:55:52.771Z,10.90
2023-04-27T05:56:55.757Z,10.90
2023-04-27T05:58:07.525Z,9.50
2023-04-27T05:59:12.192Z,10.00
2023-04-27T06:00:16.633Z,10.10
2023-04-27T06:01:19.749Z,10.60
2023-04-27T06:02:23.264Z,10.30
2023-04-27T06:03:27.234Z,11.40
2023-04-27T06:04:32.905Z,10.20
2023-04-27T06:05:36.062Z,9.10
2023-04-27T06:06:39.190Z,9.40
2023-04-27T06:07:43.824Z,8.60
2023-04-27T06:08:46.692Z,9.40
2023-04-27T06:09:49.556Z,8.70
2023-04-27T06:10:52.597Z,8.50
2023-04-27T06:11:55.624Z,9.10
2023-04-27T06:12:58.426Z,8.60
2023-04-27T06:14:01.283Z,8.70
2023-04-27T06:15:08.565Z,9.40
2023-04-27T06:16:11.499Z,9.20
2023-04-27T06:17:14.494Z,9.30
2023-04-27T06:18:17.373Z,9.10
2023-04-27T06:19:21.037Z,9.60
2023-04-27T06:20:24.043Z,9.60
2023-04-27T06:21:27.002Z,9.90
2023-04-27T06:22:29.811Z,9.10
2023-04-27T06:23:32.757Z,10.10
2023-04-27T06:24:36.622Z,9.70
2023-04-27T06:25:40.699Z,10.90
2023-04-27T06:26:43.568Z,10.20
2023-04-27T06:27:46.570Z,11.20
2023-04-27T06:28:49.402Z,10.90
2023-04-27T06:29:53.882Z,10.00
2023-04-27T06:30:56.725Z,8.70
2023-04-27T06:31:59.754Z,9.50
2023-04-27T06:33:03.112Z,10.00
2023-04-27T06:34:06.746Z,9.70
2023-04-27T06:35:09.826Z,9.90
2023-04-27T06:36:12.757Z,9.90
2023-04-27T06:37:17.330Z,8.90
2023-04-27T06:38:20.275Z,8.60
2023-04-27T06:39:23.118Z,7.90
2023-04-27T06:40:27.019Z,8.60
2023-04-27T06:41:29.936Z,9.00
2023-04-27T06:42:32.801Z,8.90
2023-04-27T06:43:35.772Z,8.90
2023-04-27T06:44:39.101Z,9.10
2023-04-27T06:45:42.892Z,9.40
2023-04-27T06:46:45.954Z,10.50
2023-04-27T06:47:49.025Z,9.10
2023-04-27T06:48:52.813Z,8.70
2023-04-27T06:49:55.659Z,8.50
2023-04-27T06:50:58.561Z,9.80
2023-04-27T06:52:03.085Z,9.50
2023-04-27T06:53:06.013Z,8.90
2023-04-27T06:54:08.942Z,8.50
2023-04-27T06:55:11.850Z,8.20
2023-04-27T06:56:14.731Z,8.50
2023-04-27T06:57:17.604Z,9.10
2023-04-27T06:58:20.467Z,8.40
2023-04-27T06:59:23.417Z,8.40
2023-04-27T07:00:27.232Z,8.10
2023-04-27T07:01:30.350Z,8.50
2023-04-27T07:02:33.366Z,8.40
2023-04-27T07:03:36.896Z,7.80
2023-04-27T07:04:40.311Z,8.80
2023-04-27T07:05:43.385Z,8.80
2023-04-27T07:06:46.442Z,8.00
2023-04-27T07:07:49.418Z,8.60
2023-04-27T07:08:52.286Z,7.70
2023-04-27T07:09:55.149Z,8.30
2023-04-27T07:10:58.430Z,8.00
2023-04-27T07:12:01.453Z,7.70
2023-04-27T07:13:05.844Z,8.50
2023-04-27T07:14:10.368Z,8.20
2023-04-27T07:15:13.494Z,8.80
2023-04-27T07:16:16.904Z,7.80
2023-04-27T07:17:19.940Z,7.70
2023-04-27T07:18:22.896Z,6.70
2023-04-27T07:19:26.189Z,8.10
2023-04-27T07:20:29.111Z,7.90
2023-04-27T07:21:32.058Z,6.90
2023-04-27T07:22:34.879Z,7.20
2023-04-27T07:23:39.962Z,8.10
2023-04-27T07:24:42.835Z,6.90
2023-04-27T07:25:46.403Z,7.00
2023-04-27T07:26:49.330Z,6.70
2023-04-27T07:27:52.508Z,6.20
2023-04-27T07:28:56.664Z,6.90
2023-04-27T07:29:59.631Z,6.30
2023-04-27T07:31:04.947Z,7.20
2023-04-27T07:32:09.030Z,7.10
2023-04-27T07:33:13.303Z,7.20
2023-04-27T07:34:16.188Z,6.40
2023-04-27T07:35:19.355Z,7.40
2023-04-27T07:36:22.258Z,7.20
2023-04-27T07:37:25.097Z,6.40
2023-04-27T07:38:29.710Z,6.20
2023-04-27T07:39:32.540Z,7.80
2023-04-27T07:40:35.487Z,6.10
2023-04-27T07:41:39.259Z,5.70
2023-04-27T07:42:42.993Z,6.30
2023-04-27T07:43:46.075Z,6.70
2023-04-27T07:44:54.122Z,6.80
2023-04-27T07:45:58.449Z,6.60
2023-04-27T07:47:08.196Z,6.30
2023-04-27T07:49:15.613Z,6.30
2023-04-27T07:50:24.440Z,7.00
2023-04-27T07:51:28.884Z,6.60
2023-04-27T07:52:32.141Z,7.00
2023-04-27T07:53:36.076Z,6.80
2023-04-27T07:54:40.195Z,6.50
2023-04-27T07:55:46.091Z,7.00
2023-04-27T07:56:49.063Z,6.70
2023-04-27T07:57:58.277Z,5.60
2023-04-27T07:59:01.445Z,6.60
2023-04-27T08:00:07.429Z,6.90
2023-04-27T08:01:15.859Z,6.50
2023-04-27T08:02:20.095Z,5.80
2023-04-27T08:03:23.982Z,7.50
2023-04-27T08:04:27.380Z,6.10
2023-04-27T08:05:30.863Z,7.20
2023-04-27T08:06:35.580Z,6.70
2023-04-27T08:07:44.155Z,6.00
2023-04-27T08:08:47.846Z,5.40
2023-04-27T08:09:52.550Z,6.40
2023-04-27T08:10:55.514Z,6.40
2023-04-27T08:11:58.572Z,6.90
2023-04-27T08:13:01.643Z,7.30
2023-04-27T08:14:04.524Z,7.00
2023-04-27T08:15:08.333Z,6.80
2023-04-27T08:16:11.493Z,6.70
2023-04-27T08:17:14.511Z,7.10
2023-04-27T08:18:18.087Z,6.50
2023-04-27T08:19:21.661Z,6.10
2023-04-27T08:20:24.563Z,6.10
2023-04-27T08:21:28.694Z,6.50
2023-04-27T08:22:31.625Z,6.10
2023-04-27T08:23:34.617Z,6.40
2023-04-27T08:24:37.577Z,5.60
2023-04-27T08:25:40.429Z,4.90
2023-04-27T08:26:43.262Z,4.90
2023-04-27T08:27:46.132Z,5.00
2023-04-27T08:28:49.475Z,5.60
2023-04-27T08:29:52.643Z,5.80
2023-04-27T08:30:55.634Z,5.30
2023-04-27T08:32:00.908Z,4.90
2023-04-27T08:33:04.010Z,4.40
2023-04-27T08:34:06.944Z,4.80
2023-04-27T08:35:10.050Z,4.70
2023-04-27T08:36:12.920Z,7.40
2023-04-27T08:37:15.822Z,5.80
2023-04-27T08:38:19.429Z,4.30
2023-04-27T08:39:23.979Z,4.50
2023-04-27T08:40:27.318Z,4.80
2023-04-27T08:41:30.407Z,4.70
2023-04-27T08:42:33.404Z,4.30
2023-04-27T08:43:36.838Z,5.10
2023-04-27T08:44:44.611Z,5.20
2023-04-27T08:45:50.243Z,5.30
2023-04-27T08:46:53.176Z,5.10
2023-04-27T08:47:56.167Z,4.90
2023-04-27T08:48:59.129Z,4.30
2023-04-27T08:50:03.848Z,4.80
2023-04-27T08:51:11.151Z,5.60
2023-04-27T08:52:15.421Z,4.50
2023-04-27T08:53:22.274Z,4.50
2023-04-27T08:54:25.165Z,4.40
2023-04-27T08:55:28.242Z,4.90
2023-04-27T08:56:31.373Z,4.30
2023-04-27T08:57:34.192Z,4.70
2023-04-27T08:58:37.897Z,4.30
2023-04-27T08:59:41.719Z,3.70
2023-04-27T09:00:46.171Z,3.10
2023-04-27T09:01:49.985Z,3.60
2023-04-27T09:02:53.201Z,3.50
2023-04-27T09:04:01.626Z,3.30
2023-04-27T09:05:06.553Z,3.70
2023-04-27T09:06:09.688Z,3.90
2023-04-27T09:07:17.998Z,3.80
2023-04-27T09:08:21.038Z,3.40
2023-04-27T09:09:25.492Z,3.60
2023-04-27T09:10:31.516Z,3.40
2023-04-27T09:11:38.173Z,3.30
2023-04-27T09:12:41.062Z,3.60
2023-04-27T09:13:45.572Z,3.20
2023-04-27T09:14:59.647Z,4.30
2023-04-27T09:16:02.752Z,3.80
2023-04-27T09:17:05.798Z,4.20
2023-04-27T09:18:15.685Z,4.10
2023-04-27T09:19:27.710Z,3.70
2023-04-27T09:20:30.932Z,3.90
2023-04-27T09:21:34.003Z,3.30
2023-04-27T09:22:47.584Z,3.80
2023-04-27T09:23:51.276Z,5.00
2023-04-27T09:24:54.256Z,4.10
2023-04-27T09:25:58.903Z,3.20
2023-04-27T09:27:03.267Z,6.80
2023-04-27T09:28:08.266Z,5.30
2023-04-27T09:29:11.257Z,4.30
2023-04-27T09:30:15.376Z,4.00
2023-04-27T09:31:18.922Z,3.40
2023-04-27T09:32:21.779Z,2.90
2023-04-27T09:33:32.922Z,3.90
2023-04-27T09:34:40.845Z,3.70
2023-04-27T09:35:45.829Z,3.20
2023-04-27T09:36:49.002Z,3.20
2023-04-27T09:37:53.457Z,3.40
2023-04-27T09:38:56.329Z,3.50
2023-04-27T09:39:59.186Z,3.00
2023-04-27T09:41:03.138Z,3.00
2023-04-27T09:42:06.334Z,3.10
2023-04-27T09:43:09.858Z,2.90
2023-04-27T09:44:14.237Z,3.30
2023-04-27T09:45:17.711Z,2.90
2023-04-27T09:46:23.573Z,3.20
2023-04-27T09:47:28.805Z,3.50
2023-04-27T09:48:32.004Z,3.10
2023-04-27T09:49:35.220Z,3.30
2023-04-27T09:50:41.057Z,3.20
2023-04-27T09:51:44.029Z,3.00
2023-04-27T09:52:47.222Z,3.20
2023-04-27T09:53:54.339Z,3.10
2023-04-27T09:54:58.947Z,3.00
2023-04-27T09:56:28.459Z,2.30
2023-04-27T09:57:39.649Z,1.70
2023-04-27T09:59:09.891Z,2.10
2023-04-27T10:00:42.714Z,2.00
2023-04-27T10:01:48.841Z,1.90
2023-04-27T10:03:10.208Z,2.00
2023-04-27T10:04:28.410Z,2.30
2023-04-27T10:05:50.317Z,1.90
2023-04-27T10:07:00.490Z,1.80
2023-04-27T10:08:05.346Z,1.70
2023-04-27T10:09:08.898Z,1.70
2023-04-27T10:10:18.854Z,1.90
2023-04-27T10:11:23.110Z,2.50
2023-04-27T10:12:36.561Z,2.60
2023-04-27T10:13:39.586Z,2.60
2023-04-27T10:15:16.360Z,3.00
2023-04-27T10:16:20.081Z,2.60
2023-04-27T10:17:33.149Z,2.70
2023-04-27T10:18:36.184Z,2.10
2023-04-27T10:19:39.035Z,2.50
2023-04-27T10:20:42.060Z,2.10
2023-04-27T10:22:00.576Z,2.60
2023-04-27T10:23:04.641Z,3.50
2023-04-27T10:24:09.199Z,7.20
2023-04-27T10:25:18.370Z,5.10
2023-04-27T10:26:25.621Z,2.80
2023-04-27T10:27:28.445Z,3.00
2023-04-27T10:28:40.300Z,2.60
2023-04-27T10:29:46.262Z,2.80
2023-04-27T10:30:49.745Z,2.90
2023-04-27T10:31:52.770Z,2.10
2023-04-27T10:33:04.200Z,2.80
2023-04-27T10:34:11.648Z,2.80
2023-04-27T10:35:14.576Z,2.80
2023-04-27T10:36:17.679Z,2.80
2023-04-27T10:37:22.126Z,2.80
2023-04-27T10:38:29.964Z,2.80
2023-04-27T10:39:47.526Z,3.00
2023-04-27T10:41:02.612Z,3.40
2023-04-27T10:42:06.592Z,4.00
2023-04-27T10:43:27.930Z,4.30
2023-04-27T10:44:33.494Z,4.30
2023-04-27T10:45:36.402Z,4.80
2023-04-27T10:46:50.605Z,4.20
2023-04-27T10:47:59.359Z,4.90
2023-04-27T10:49:05.646Z,4.90
2023-04-27T10:50:11.643Z,4.80
2023-04-27T10:51:20.328Z,5.10
2023-04-27T10:52:25.852Z,5.50
2023-04-27T10:53:34.939Z,5.00
2023-04-27T10:54:39.592Z,4.40
2023-04-27T10:55:42.725Z,4.50
2023-04-27T10:56:45.951Z,4.30
2023-04-27T10:57:50.073Z,4.40
2023-04-27T10:58:52.989Z,4.60
2023-04-27T10:59:56.108Z,4.90
2023-04-27T11:00:58.925Z,5.00
2023-04-27T11:02:02.003Z,5.00
2023-04-27T11:03:19.747Z,5.30
2023-04-27T11:04:22.839Z,4.50
2023-04-27T11:05:33.120Z,3.90
2023-04-27T11:06:43.018Z,4.50
2023-04-27T11:07:48.019Z,3.90
2023-04-27T11:08:51.039Z,3.60
2023-04-27T11:09:54.145Z,3.70
2023-04-27T11:10:57.328Z,4.50
2023-04-27T11:12:00.763Z,4.60
2023-04-27T11:13:09.365Z,5.10
2023-04-27T11:14:19.869Z,3.40
2023-04-27T11:15:22.741Z,2.40
2023-04-27T11:16:26.021Z,3.00
2023-04-27T11:17:30.168Z,2.70
2023-04-27T11:18:35.993Z,2.20
2023-04-27T11:19:48.793Z,2.50
2023-04-27T11:20:54.274Z,3.40
2023-04-27T11:22:04.841Z,2.20
2023-04-27T11:23:11.205Z,2.40
2023-04-27T11:24:15.505Z,2.40
2023-04-27T11:25:27.792Z,2.10
2023-04-27T11:26:30.758Z,2.50
2023-04-27T11:27:38.658Z,2.50
2023-04-27T11:28:45.927Z,2.40
2023-04-27T11:29:48.922Z,2.70
2023-04-27T11:30:59.231Z,2.70
2023-04-27T11:32:02.783Z,3.20
2023-04-27T11:33:08.592Z,3.00
2023-04-27T11:34:16.370Z,2.70
2023-04-27T11:35:19.321Z,3.20
2023-04-27T11:36:23.914Z,2.60
2023-04-27T11:37:27.827Z,2.80
2023-04-27T11:38:34.491Z,3.00
2023-04-27T11:39:39.000Z,3.40
2023-04-27T11:40:42.775Z,3.00
2023-04-27T11:41:46.598Z,3.10
2023-04-27T11:42:58.222Z,3.20
2023-04-27T11:44:07.790Z,3.10
2023-04-27T11:45:12.363Z,3.00
2023-04-27T11:46:15.493Z,3.00
2023-04-27T11:47:19.393Z,3.20
2023-04-27T11:48:27.159Z,2.50
2023-04-27T11:49:30.106Z,2.90
2023-04-27T11:50:33.131Z,2.60
2023-04-27T11:51:36.452Z,4.10
2023-04-27T11:52:42.488Z,2.90
2023-04-27T11:53:48.328Z,2.50
2023-04-27T11:54:53.730Z,2.80
2023-04-27T11:55:56.597Z,2.80
2023-04-27T11:57:07.218Z,3.10
2023-04-27T11:58:16.663Z,2.20
2023-04-27T11:59:21.627Z,2.90
2023-04-27T12:00:24.854Z,2.70
2023-04-27T12:01:36.895Z,2.50
2023-04-27T12:02:42.459Z,2.60
2023-04-27T12:03:46.053Z,2.30
2023-04-27T12:04:52.270Z,2.00
2023-04-27T12:05:55.988Z,1.80
2023-04-27T12:07:02.016Z,2.30
2023-04-27T12:08:05.571Z,1.90
2023-04-27T12:09:08.999Z,1.90
2023-04-27T12:10:12.570Z,1.60
2023-04-27T12:11:15.543Z,1.70
2023-04-27T12:12:19.409Z,2.30
2023-04-27T12:13:22.677Z,2.10
2023-04-27T12:14:26.128Z,1.70
2023-04-27T12:15:28.972Z,1.60
2023-04-27T12:16:31.950Z,1.80
2023-04-27T12:17:35.093Z,1.90
2023-04-27T12:18:38.022Z,1.50
2023-04-27T12:19:41.080Z,1.60
2023-04-27T12:20:43.968Z,1.50
2023-04-27T12:21:46.953Z,1.40
2023-04-27T12:22:50.244Z,1.70
2023-04-27T12:23:53.196Z,1.40
2023-04-27T12:24:56.317Z,1.50
2023-04-27T12:25:59.266Z,1.50
2023-04-27T12:27:03.995Z,2.00
2023-04-27T12:28:07.375Z,1.90
2023-04-27T12:29:11.249Z,2.00
2023-04-27T12:30:14.941Z,1.70
2023-04-27T12:31:23.231Z,1.50
2023-04-27T12:32:28.140Z,1.60
2023-04-27T12:33:31.915Z,1.70
2023-04-27T12:34:35.958Z,1.80
2023-04-27T12:35:38.887Z,2.50
2023-04-27T12:36:41.783Z,1.80
2023-04-27T12:37:44.945Z,2.00
2023-04-27T12:38:47.943Z,1.90
2023-04-27T12:39:50.871Z,1.70
2023-04-27T12:40:53.895Z,2.10
2023-04-27T12:41:58.351Z,1.80
2023-04-27T12:43:01.601Z,1.80
2023-04-27T12:44:04.595Z,1.70
2023-04-27T12:45:08.491Z,1.90
2023-04-27T12:46:11.696Z,2.20
2023-04-27T12:47:27.864Z,1.50
2023-04-27T12:48:37.689Z,1.90
2023-04-27T12:49:40.630Z,2.00
2023-04-27T12:50:44.189Z,1.90
2023-04-27T12:51:48.066Z,2.00
2023-04-27T12:52:51.444Z,2.20
2023-04-27T12:53:54.825Z,1.90
2023-04-27T12:54:59.377Z,2.60
2023-04-27T12:56:03.141Z,2.10
2023-04-27T12:57:06.848Z,2.30
2023-04-27T12:58:09.872Z,1.90
2023-04-27T12:59:13.445Z,1.90
2023-04-27T13:00:16.785Z,2.00
2023-04-27T13:01:21.538Z,1.90
2023-04-27T13:02:24.553Z,1.70
2023-04-27T13:03:27.769Z,1.70
2023-04-27T13:04:31.550Z,1.80
2023-04-27T13:05:34.561Z,2.00
2023-04-27T13:06:37.520Z,3.10
2023-04-27T13:07:40.518Z,2.20
2023-04-27T13:08:47.271Z,1.90
2023-04-27T13:09:50.142Z,1.80
2023-04-27T13:10:53.263Z,2.20
2023-04-27T13:11:56.174Z,2.40
2023-04-27T13:12:59.775Z,2.00
2023-04-27T13:14:02.626Z,2.20
2023-04-27T13:15:07.863Z,2.20
2023-04-27T13:16:11.917Z,2.00
2023-04-27T13:17:14.924Z,1.90
2023-04-27T13:18:17.761Z,2.20
2023-04-27T13:19:20.687Z,2.20
2023-04-27T13:20:23.565Z,2.40
2023-04-27T13:21:27.041Z,2.20
2023-04-27T13:22:31.160Z,2.10
2023-04-27T13:23:34.745Z,2.70
2023-04-27T13:24:37.963Z,2.00
2023-04-27T13:25:41.129Z,2.20
2023-04-27T13:26:44.049Z,2.40
2023-04-27T13:27:46.958Z,2.20
2023-04-27T13:28:49.968Z,2.20
2023-04-27T13:29:52.849Z,2.10
2023-04-27T13:30:56.345Z,2.10
2023-04-27T13:31:59.989Z,2.30
2023-04-27T13:33:18.705Z,1.80
2023-04-27T13:34:24.616Z,1.90
2023-04-27T13:35:27.673Z,1.90
2023-04-27T13:36:30.631Z,2.00
2023-04-27T13:37:33.527Z,2.10
2023-04-27T13:38:36.682Z,2.00
2023-04-27T13:39:39.666Z,2.60
2023-04-27T13:40:42.706Z,1.90
2023-04-27T13:41:46.142Z,1.90
2023-04-27T13:42:49.281Z,2.10
2023-04-27T13:43:52.412Z,2.50
2023-04-27T13:44:56.888Z,2.20
2023-04-27T13:46:01.693Z,2.00
2023-04-27T13:47:05.288Z,2.90
2023-04-27T13:48:08.813Z,2.20
2023-04-27T13:49:11.875Z,2.10
2023-04-27T13:50:14.834Z,2.20
2023-04-27T13:51:17.834Z,2.00
2023-04-27T13:52:20.780Z,2.20
2023-04-27T13:53:27.002Z,2.00
2023-04-27T13:54:29.942Z,2.30
2023-04-27T13:55:32.933Z,2.00
2023-04-27T13:56:35.929Z,2.30
2023-04-27T13:57:38.927Z,2.30
2023-04-27T13:58:41.860Z,2.10
2023-04-27T13:59:45.085Z,2.40
2023-04-27T14:00:48.531Z,2.20
2023-04-27T14:01:51.411Z,2.10
2023-04-27T14:02:54.555Z,2.30
2023-04-27T14:03:57.751Z,1.70
2023-04-27T14:05:01.143Z,2.20